This is the latest recevied weather packets stored in our database for station/object F4CYQ-10. If no packets are shown the sender has not sent any weather packets the latest 1 day(s).
| Time | Temp. | Humidity | Pressure | Rain* | Wind** | Luminosity | Snow |
|---|---|---|---|---|---|---|---|
| 1778099191 | 18.33° C | 55% | 1016.7 hPa | - | - | - | - |
| 1778098290 | 18.89° C | 55% | 1016.4 hPa | - | - | - | - |
| 1778094438 | -5° C | 100% | 4.8 hPa | - | - | - | - |
| 1778091195 | 18.33° C | 54% | 1015.6 hPa | - | - | - | - |
| 1778090899 | 18.33° C | 55% | 1015.6 hPa | - | - | - | - |
| 1778088030 | 17.78° C | 52% | 1015.6 hPa | - | - | - | - |
| 1778085163 | 17.78° C | 52% | 1015.4 hPa | - | - | - | - |
| 1778084089 | 18.89° C | 52% | 1015.4 hPa | - | - | - | - |
| 1778082287 | 18.33° C | 53% | 1015.4 hPa | - | - | - | - |
| 1778080243 | 18.33° C | 53% | 1015.5 hPa | - | - | - | - |
| 1778076456 | 17.22° C | 57% | 1015.7 hPa | - | - | - | - |
| 1778075555 | 18.33° C | 58% | 1015.6 hPa | - | - | - | - |
| 1778074698 | 17.78° C | 56% | 1015.4 hPa | - | - | - | - |
| 1778071536 | 17.22° C | 58% | 1015.4 hPa | - | - | - | - |
| 1778070635 | -5° C | 100% | 4.8 hPa | - | - | - | - |
| 1778070182 | 18.33° C | 58% | 1014.9 hPa | - | - | - | - |
| 1778067894 | 18.33° C | 58% | 1014.9 hPa | - | - | - | - |
| 1778067389 | 17.78° C | 58% | 1014.8 hPa | - | - | - | - |
| 1778063046 | 17.22° C | 58% | 1014.7 hPa | - | - | - | - |
| 1778061907 | 16.11° C | 59% | 1014.8 hPa | - | - | - | - |
| 1778061006 | 16.67° C | 57% | 1014.8 hPa | - | - | - | - |
| 1778060105 | 16.67° C | 57% | 1014.7 hPa | - | - | - | - |
| 1778059204 | 18.33° C | 56% | 1014.5 hPa | - | - | - | - |
| 1778057999 | 15.56° C | 57% | 1014.5 hPa | - | - | - | - |
| 1778057253 | 16.11° C | 57% | 1014.1 hPa | - | - | - | - |
* Rain since midnight (hover to see other rain measurements)
** Current wind speed in m/s (hover to see current wind gust speed)